Time;durP1;ratioP1;P1;durP2;ratioP2;P2;SDS_P1;SDS_P2;PMS_P1;PMS_P2;Temp;Humidity;BMP_temperature;BMP_pressure;BME280_temperature;BME280_humidity;BME280_pressure;Samples;Min_cycle;Max_cycle;Signal;HPM_P1;HPM_P2
2021/01/29 00:00:40;;;;;;;6.12;5.53;;;;;;;-3.89;100.00;97607.55;1702037;84;25456;-75
2021/01/29 00:03:15;;;;;;;6.42;5.45;;;;;;;-3.80;100.00;97611.52;1701347;84;21054;-74
2021/01/29 00:05:51;;;;;;;8.33;6.03;;;;;;;-3.84;100.00;97605.61;1701565;84;21049;-75
2021/01/29 00:08:20;;;;;;;8.88;5.83;;;;;;;-3.94;100.00;97604.23;1701929;84;21201;-74
2021/01/29 00:10:51;;;;;;;7.37;6.58;;;;;;;-3.77;100.00;97608.98;1701961;84;21025;-74
2021/01/29 00:13:21;;;;;;;6.47;5.97;;;;;;;-3.79;100.00;97607.10;1702062;84;21081;-74
2021/01/29 00:15:50;;;;;;;6.58;5.85;;;;;;;-3.76;100.00;97603.53;1701905;84;21050;-75
2021/01/29 00:18:20;;;;;;;6.67;6.03;;;;;;;-3.79;100.00;97603.16;1702060;84;21071;-73
2021/01/29 00:20:51;;;;;;;6.45;5.95;;;;;;;-3.83;100.00;97604.08;1701823;84;22128;-75
2021/01/29 00:23:20;;;;;;;14.07;7.15;;;;;;;-3.92;100.00;97590.91;1701003;84;21186;-75
2021/01/29 00:25:50;;;;;;;;;;;;;;;-3.73;100.00;97599.69;1704408;84;21022;-74
2021/01/29 00:28:41;;;;;;;6.62;6.00;;;;;;;-3.77;100.00;97590.14;1701765;83;20231;-74
2021/01/29 00:31:12;;;;;;;5.83;5.33;;;;;;;-3.74;100.00;97587.09;1699389;84;21055;-75
2021/01/29 00:33:41;;;;;;;;;;;;;;;-3.76;100.00;97581.77;1726436;83;21388;-74
2021/01/29 00:36:09;;;;;;;6.08;5.58;;;;;;;-3.78;100.00;97575.92;1706209;84;20148;-74
2021/01/29 00:38:38;;;;;;;7.97;6.83;;;;;;;-3.80;100.00;97569.57;1724048;83;21556;-75
2021/01/29 00:41:06;;;;;;;26.05;12.63;;;;;;;-3.68;100.00;97569.71;1723805;83;21125;-74
2021/01/29 00:43:35;;;;;;;23.90;10.82;;;;;;;-3.72;100.00;97564.61;1723961;83;21136;-74
2021/01/29 00:46:03;;;;;;;82.33;26.33;;;;;;;-3.71;100.00;97560.45;1723751;83;26516;-74
2021/01/29 00:48:32;;;;;;;47.23;19.48;;;;;;;-3.83;100.00;97553.47;1723275;83;21207;-75
2021/01/29 00:51:00;;;;;;;58.92;24.98;;;;;;;-3.66;100.00;97561.13;1689460;85;20950;-75
2021/01/29 00:53:28;;;;;;;116.00;39.75;;;;;;;-3.71;100.00;97555.20;1699222;84;21126;-74
2021/01/29 00:55:57;;;;;;;91.28;30.55;;;;;;;-3.74;100.00;97551.70;1709961;83;21595;-74
2021/01/29 00:58:27;;;;;;;92.97;34.20;;;;;;;-3.57;100.00;97539.41;1701956;84;21334;-74
2021/01/29 01:01:03;;;;;;;54.13;19.75;;;;;;;-3.74;100.00;97535.17;1688326;84;21229;-74
2021/01/29 01:03:32;;;;;;;76.45;27.67;;;;;;;-3.81;100.00;97532.58;1681068;84;21158;-74
2021/01/29 01:06:01;;;;;;;88.70;28.25;;;;;;;-3.83;100.00;97530.67;1701073;84;21632;-74
2021/01/29 01:08:34;;;;;;;59.80;26.15;;;;;;;-3.83;100.00;97520.70;1700560;84;20964;-74
2021/01/29 01:11:08;;;;;;;30.85;14.18;;;;;;;-3.83;100.00;97512.84;1681418;82;21658;-74
2021/01/29 01:13:57;;;;;;;17.12;9.23;;;;;;;-3.92;100.00;97520.14;1672619;85;21023;-75
2021/01/29 01:16:38;;;;;;;13.85;8.85;;;;;;;-3.91;100.00;97507.34;1876682;75;28035;-73
2021/01/29 01:19:09;;;;;;;7.22;6.12;;;;;;;-4.02;100.00;97505.38;1820955;78;21047;-73
2021/01/29 01:21:45;;;;;;;8.30;7.47;;;;;;;-4.20;100.00;97503.47;1795028;78;21271;-73
2021/01/29 01:24:20;;;;;;;7.42;6.78;;;;;;;-4.27;100.00;97510.55;1751737;81;20952;-73
2021/01/29 01:26:50;;;;;;;7.12;6.45;;;;;;;-4.50;100.00;97496.15;1787656;80;20935;-73
2021/01/29 01:29:25;;;;;;;9.53;7.37;;;;;;;-4.64;100.00;97495.38;1749902;81;20983;-73
2021/01/29 01:31:54;;;;;;;7.45;6.83;;;;;;;-4.72;100.00;97493.52;1787051;80;20940;-74
2021/01/29 01:34:48;;;;;;;9.93;8.93;;;;;;;-4.79;100.00;97493.02;1741893;82;21193;-74
2021/01/29 01:37:26;;;;;;;8.63;7.10;;;;;;;-4.91;100.00;97491.24;1874663;75;28502;-73
2021/01/29 01:40:16;;;;;;;8.98;7.78;;;;;;;-5.10;100.00;97483.73;1819970;78;20895;-74
2021/01/29 01:42:46;;;;;;;10.82;7.58;;;;;;;-5.17;100.00;97479.80;1819906;78;21261;-74
2021/01/29 01:45:32;;;;;;;9.43;7.65;;;;;;;-5.22;100.00;97477.00;1819913;78;21470;-74
2021/01/29 01:48:14;;;;;;;21.93;13.00;;;;;;;-5.25;100.00;97472.19;1804786;78;20991;-74
2021/01/29 01:50:47;;;;;;;100.87;39.90;;;;;;;-5.42;100.00;97462.64;1815256;78;21465;-73
2021/01/29 01:53:36;;;;;;;27.00;15.20;;;;;;;-5.46;100.00;97454.92;1788717;78;20889;-73
2021/01/29 01:56:32;;;;;;;16.00;9.33;;;;;;;-5.58;100.00;97437.73;1820021;78;21188;-74
2021/01/29 01:59:13;;;;;;;26.73;15.40;;;;;;;-5.77;100.00;97441.95;1812705;78;21035;-74
2021/01/29 02:02:01;;;;;;;63.42;26.17;;;;;;;-5.77;100.00;97449.80;1781513;80;21583;-74
2021/01/29 02:04:49;;;;;;;67.45;30.55;;;;;;;-5.77;100.00;97447.18;1781484;80;21042;-74
2021/01/29 02:07:52;;;;;;;70.20;33.25;;;;;;;-5.86;100.00;97448.37;1781444;80;20927;-74
2021/01/29 02:10:39;;;;;;;16.45;9.85;;;;;;;-5.99;100.00;97449.20;1781427;80;21267;-75
2021/01/29 02:13:09;;;;;;;16.50;9.70;;;;;;;-6.00;100.00;97451.53;1780811;80;21073;-72
2021/01/29 02:15:43;;;;;;;9.08;8.15;;;;;;;-6.03;100.00;97457.13;1781555;80;21675;-72
2021/01/29 02:18:46;;;;;;;16.27;11.53;;;;;;;-5.98;100.00;97452.11;1781555;80;21014;-72
2021/01/29 02:21:39;;;;;;;9.30;8.30;;;;;;;-5.99;100.00;97447.90;1781323;80;20922;-73
2021/01/29 02:25:11;;;;;;;10.23;7.87;;;;;;;-5.91;100.00;97444.25;1827935;77;28143;-73
2021/01/29 02:27:57;;;;;;;15.43;10.55;;;;;;;-6.00;100.00;97438.47;1749719;82;20919;-73
2021/01/29 02:31:17;;;;;;;53.65;27.95;;;;;;;-6.04;100.00;97417.66;1803123;78;21791;-74
2021/01/29 02:34:39;;;;;;;30.30;16.70;;;;;;;-6.04;100.00;97417.15;1738743;81;21429;-73
2021/01/29 02:37:51;;;;;;;29.40;16.77;;;;;;;-6.04;100.00;97415.84;1812686;78;21573;-72
2021/01/29 02:40:37;;;;;;;49.60;23.00;;;;;;;-6.07;100.00;97427.20;1815632;78;21081;-73
2021/01/29 02:43:34;;;;;;;75.28;35.28;;;;;;;-6.18;100.00;97410.81;1812699;78;21043;-73
2021/01/29 02:46:09;;;;;;;69.12;31.00;;;;;;;-6.14;100.00;97404.99;1711844;81;21272;-73
2021/01/29 02:49:19;;;;;;;92.72;42.38;;;;;;;-6.23;100.00;97404.88;1811632;78;26287;-73
2021/01/29 02:52:20;;;;;;;77.35;37.17;;;;;;;-6.21;100.00;97401.56;1819884;78;20884;-73
2021/01/29 02:55:06;;;;;;;140.70;55.60;;;;;;;-6.22;100.00;97390.83;1724895;80;21055;-73
2021/01/29 02:58:02;;;;;;;119.93;55.58;;;;;;;-6.16;100.00;97385.30;1755285;80;21074;-73
2021/01/29 03:01:19;;;;;;;78.92;39.60;;;;;;;-6.20;100.00;97394.02;1819822;78;21189;-73
2021/01/29 03:03:54;;;;;;;51.53;26.73;;;;;;;-6.09;100.00;97385.61;1812853;78;20995;-73
2021/01/29 03:06:40;;;;;;;93.35;46.88;;;;;;;-6.05;100.00;97388.13;1737062;81;21252;-73
2021/01/29 03:09:33;;;;;;;72.70;35.85;;;;;;;-5.98;100.00;97380.27;1726325;82;21169;-73
2021/01/29 03:12:33;;;;;;;48.52;27.77;;;;;;;-5.95;100.00;97382.50;1807740;78;21537;-73
2021/01/29 03:15:24;;;;;;;54.53;29.67;;;;;;;-5.87;100.00;97394.52;1739181;81;21375;-73
2021/01/29 03:18:27;;;;;;;23.30;15.03;;;;;;;-5.83;100.00;97388.70;1812850;78;21018;-74
2021/01/29 03:21:19;;;;;;;19.82;12.40;;;;;;;-5.83;100.00;97379.55;1711212;82;21126;-73
2021/01/29 03:24:19;;;;;;;23.92;11.93;;;;;;;-5.70;100.00;97374.02;1812820;78;21126;-75
2021/01/29 03:27:11;;;;;;;32.75;17.07;;;;;;;-5.61;100.00;97351.86;1757311;81;21644;-74
2021/01/29 03:30:01;;;;;;;24.60;14.35;;;;;;;-5.51;100.00;97344.42;1810024;78;21348;-73
2021/01/29 03:32:50;;;;;;;29.67;16.52;;;;;;;-5.48;100.00;97326.22;1816398;78;21066;-73
2021/01/29 03:35:44;;;;;;;32.10;18.00;;;;;;;-5.42;100.00;97340.55;1745045;81;21075;-74
2021/01/29 03:38:51;;;;;;;23.77;14.55;;;;;;;-5.33;100.00;97329.89;1732211;81;21037;-73
2021/01/29 03:41:41;;;;;;;33.78;16.07;;;;;;;-5.32;100.00;97328.87;1776299;80;21053;-73
2021/01/29 03:44:54;;;;;;;25.77;14.38;;;;;;;-5.27;100.00;97314.66;1814087;78;22043;-72
2021/01/29 03:47:57;;;;;;;42.10;22.73;;;;;;;-5.29;100.00;97303.60;1749176;81;21092;-73
2021/01/29 03:51:09;;;;;;;20.08;12.93;;;;;;;-5.24;100.00;97300.69;1814116;78;21073;-74
2021/01/29 03:54:24;;;;;;;28.73;14.25;;;;;;;-5.25;100.00;97300.38;1805252;78;20910;-74
2021/01/29 03:57:31;;;;;;;33.63;17.87;;;;;;;-5.23;100.00;97288.41;1809783;78;21129;-74
2021/01/29 04:00:29;;;;;;;28.70;17.37;;;;;;;-5.22;100.00;97284.77;1811848;78;21190;-74
2021/01/29 04:03:40;;;;;;;23.77;13.45;;;;;;;-5.15;100.00;97284.23;1738228;81;21066;-74
2021/01/29 04:06:20;;;;;;;18.73;12.88;;;;;;;-5.21;100.00;97296.34;1747280;78;21223;-73
2021/01/29 04:09:32;;;;;;;30.00;17.17;;;;;;;-5.10;100.00;97307.95;1754308;81;21047;-75
2021/01/29 04:12:08;;;;;;;23.20;13.58;;;;;;;-5.07;100.00;97297.57;1807192;78;21000;-75
2021/01/29 04:14:46;;;;;;;22.40;11.90;;;;;;;-5.13;100.00;97282.73;1807001;78;21733;-75
2021/01/29 04:17:25;;;;;;;58.35;31.12;;;;;;;-5.00;100.00;97298.34;1726708;81;20919;-74
2021/01/29 04:20:04;;;;;;;232.72;112.30;;;;;;;-4.96;100.00;97299.54;1819052;78;21451;-74
2021/01/29 04:22:35;;;;;;;38.23;22.37;;;;;;;-4.91;100.00;97298.91;1732577;81;21352;-74
2021/01/29 04:25:21;;;;;;;42.45;22.67;;;;;;;-4.85;100.00;97299.37;1777534;80;21571;-74
2021/01/29 04:27:51;;;;;;;42.95;23.47;;;;;;;-4.89;100.00;97295.08;1776201;80;21652;-74
2021/01/29 04:30:25;;;;;;;23.18;16.10;;;;;;;-4.75;100.00;97297.91;1813981;78;21129;-74
2021/01/29 04:33:02;;;;;;;31.65;16.62;;;;;;;-4.87;100.00;97282.59;1716543;81;21054;-75
2021/01/29 04:35:31;;;;;;;74.47;32.53;;;;;;;-4.82;100.00;97270.98;1772590;80;21113;-75
2021/01/29 04:38:14;;;;;;;44.35;24.60;;;;;;;-4.97;100.00;97275.70;1780163;80;21003;-74
2021/01/29 04:41:19;;;;;;;41.48;19.37;;;;;;;-4.82;100.00;97268.88;1803842;78;22294;-74
2021/01/29 04:44:12;;;;;;;124.33;46.88;;;;;;;-4.79;100.00;97274.98;1781372;80;21177;-75
2021/01/29 04:47:15;;;;;;;115.62;58.98;;;;;;;-4.71;100.00;97264.77;1835417;77;27866;-73
2021/01/29 04:50:15;;;;;;;62.78;30.45;;;;;;;-4.72;100.00;97270.52;1819401;78;20972;-74
2021/01/29 04:53:18;;;;;;;57.30;23.42;;;;;;;-4.75;100.00;97261.78;1749995;82;21200;-74
2021/01/29 04:56:13;;;;;;;66.02;29.45;;;;;;;-4.81;100.00;97254.77;1818845;78;20920;-74
2021/01/29 04:59:14;;;;;;;45.98;24.07;;;;;;;-3.14;100.00;97261.28;1750071;82;21010;-74
2021/01/29 05:02:17;;;;;;;60.92;28.35;;;;;;;-3.40;100.00;97250.63;1819835;78;21018;-73
2021/01/29 05:05:48;;;;;;;48.90;26.52;;;;;;;-3.56;100.00;97253.33;1782316;78;20995;-73
2021/01/29 05:08:48;;;;;;;46.73;22.85;;;;;;;-3.78;100.00;97241.16;1815253;78;21238;-75
2021/01/29 05:11:52;;;;;;;47.43;20.40;;;;;;;-4.01;100.00;97235.78;1745246;82;21065;-75
2021/01/29 05:14:41;;;;;;;54.60;29.02;;;;;;;-4.01;100.00;97243.13;1819794;78;21863;-75
2021/01/29 05:17:21;;;;;;;54.35;23.55;;;;;;;-3.86;100.00;97230.98;1750007;82;20932;-74
2021/01/29 05:20:07;;;;;;;97.08;46.68;;;;;;;-4.02;100.00;97231.03;1819046;78;21309;-74
2021/01/29 05:23:03;;;;;;;56.00;28.57;;;;;;;-3.99;100.00;97231.92;1749824;81;21409;-75
2021/01/29 05:26:02;;;;;;;33.90;17.05;;;;;;;-3.81;100.00;97237.68;1819404;78;21022;-74
2021/01/29 05:28:41;;;;;;;58.05;32.30;;;;;;;-3.93;100.00;97236.80;1694739;82;21508;-74
2021/01/29 05:31:49;;;;;;;85.15;38.50;;;;;;;-3.89;100.00;97241.39;1694318;84;20982;-74
2021/01/29 05:34:38;;;;;;;64.82;27.90;;;;;;;-3.86;100.00;97245.91;1690970;84;21232;-74
2021/01/29 05:37:35;;;;;;;66.53;29.82;;;;;;;-3.76;100.00;97247.00;1692965;84;21613;-75
2021/01/29 05:40:49;;;;;;;84.75;38.67;;;;;;;-3.66;100.00;97245.97;1826664;77;28077;-73
2021/01/29 05:43:50;;;;;;;141.10;63.58;;;;;;;-3.74;100.00;97233.17;1826105;78;21026;-74
2021/01/29 05:46:33;;;;;;;139.52;59.35;;;;;;;-3.64;100.00;97245.77;1827773;78;22108;-75
2021/01/29 05:49:44;;;;;;;81.10;39.60;;;;;;;-3.67;100.00;97253.56;1828130;78;20967;-74
2021/01/29 05:56:23;;;;;;;77.42;34.48;;;;;;;-3.47;100.00;97253.33;1722891;81;21450;-75
2021/01/29 06:03:47;;;;;;;61.60;29.18;;;;;;;-3.26;100.00;97238.95;1713329;83;21499;-73
2021/01/29 06:07:04;;;;;;;86.92;39.45;;;;;;;-3.40;100.00;97228.34;1722215;81;21642;-75
2021/01/29 06:10:30;;;;;;;43.05;22.58;;;;;;;-3.15;100.00;97233.97;1722913;82;21048;-74
2021/01/29 06:13:41;;;;;;;82.37;39.20;;;;;;;-3.33;100.00;97239.55;1640032;87;21213;-75
2021/01/29 06:17:20;;;;;;;66.20;33.15;;;;;;;-3.39;100.00;97225.99;1866490;76;28092;-74
2021/01/29 06:20:40;;;;;;;201.47;93.77;;;;;;;-3.37;100.00;97218.70;1838306;77;21074;-76
2021/01/29 06:23:36;;;;;;;75.00;36.88;;;;;;;-3.25;100.00;97232.67;1813984;77;21416;-74
2021/01/29 06:26:44;;;;;;;76.90;38.95;;;;;;;-3.05;100.00;97231.61;1814519;78;21393;-73
2021/01/29 06:29:46;;;;;;;70.95;38.58;;;;;;;-3.17;100.00;97226.83;1816268;76;20986;-74
2021/01/29 06:32:36;;;;;;;60.80;29.70;;;;;;;-3.17;100.00;97217.13;1806095;78;21010;-75
2021/01/29 06:35:50;;;;;;;61.30;28.27;;;;;;;-2.94;100.00;97227.41;1803647;77;21648;-75
2021/01/29 06:39:05;;;;;;;103.97;45.78;;;;;;;-2.95;100.00;97221.88;1808390;78;22105;-75
2021/01/29 06:42:21;;;;;;;117.82;52.43;;;;;;;-3.08;100.00;97217.11;1718263;81;21236;-75
2021/01/29 06:45:12;;;;;;;42.53;24.65;;;;;;;-2.83;100.00;97219.57;1611944;87;21156;-74
2021/01/29 06:52:33;;;;;;;47.33;24.72;;;;;;;-2.65;100.00;97223.14;1832345;77;28837;-75
2021/01/29 06:55:09;;;;;;;52.45;27.17;;;;;;;-2.52;100.00;97212.94;1771790;78;21629;-74
2021/01/29 06:58:14;;;;;;;76.67;39.23;;;;;;;-2.63;100.00;97214.53;1763209;79;21184;-75
2021/01/29 07:05:43;;;;;;;;;;;;;;;;;;;;;
2021/01/29 07:24:17;;;;;;;56.65;32.05;;;;;;;-2.70;100.00;97209.38;1805772;78;21058;-75
2021/01/29 07:27:02;;;;;;;57.05;27.90;;;;;;;-2.41;100.00;97212.16;1742841;82;21812;-74
2021/01/29 07:30:11;;;;;;;39.13;18.65;;;;;;;-1.54;100.00;97212.71;1732976;82;21675;-75
2021/01/29 07:36:47;;;;;;;50.67;28.73;;;;;;;-1.77;100.00;97203.03;1873960;76;28653;-75
2021/01/29 07:39:51;;;;;;;46.88;21.37;;;;;;;-1.81;100.00;97208.48;1803277;79;21125;-75
2021/01/29 07:42:46;;;;;;;84.17;41.87;;;;;;;-1.35;100.00;97210.69;1809315;78;21042;-75
2021/01/29 07:46:08;;;;;;;50.40;27.50;;;;;;;-1.35;100.00;97210.69;1800873;79;21273;-74
2021/01/29 07:49:07;;;;;;;35.55;21.80;;;;;;;-1.69;100.00;97218.95;1784272;80;20923;-75
2021/01/29 07:52:23;;;;;;;64.37;33.02;;;;;;;-1.89;100.00;97212.77;1777616;79;21664;-76
2021/01/29 07:55:22;;;;;;;56.85;28.30;;;;;;;-1.72;100.00;97217.07;1784106;79;20916;-76
2021/01/29 07:58:23;;;;;;;53.08;24.12;;;;;;;-1.60;100.00;97213.11;1783079;80;21078;-76
2021/01/29 08:01:36;;;;;;;46.28;23.07;;;;;;;-1.74;100.00;97219.16;1783652;80;20915;-74
2021/01/29 08:04:50;;;;;;;91.12;48.30;;;;;;;-1.59;100.00;97212.09;1774379;80;20892;-75
2021/01/29 08:10:36;;;;;;;55.03;36.70;;;;;;;-1.29;100.00;97208.45;1834312;77;27793;-74
2021/01/29 08:14:00;;;;;;;;;;;;;;;;;;;;;
2021/01/29 08:17:21;;;;;;;29.10;16.37;;;;;;;-1.02;100.00;97207.88;1847654;77;28156;-74
2021/01/29 08:24:41;;;;;;;54.73;30.12;;;;;;;-0.59;100.00;97203.84;1873681;75;28243;-74
2021/01/29 08:28:07;;;;;;;33.90;20.70;;;;;;;-0.93;100.00;97203.31;1818231;78;20983;-76
2021/01/29 08:31:25;;;;;;;33.38;20.92;;;;;;;-0.70;100.00;97214.22;1690562;84;22378;-75
2021/01/29 08:35:03;;;;;;;;;;;;;;;;;;;;;
2021/01/29 08:38:20;;;;;;;;;;;;;;;;;;;;;
2021/01/29 08:40:58;;;;;;;;;;;;;;;-0.44;100.00;97212.80;1789041;80;21458;-74
2021/01/29 08:43:51;;;;;;;29.42;15.28;;;;;;;-0.30;100.00;97213.78;1790206;78;20158;-73
2021/01/29 08:46:49;;;;;;;28.50;19.00;;;;;;;-0.66;100.00;97219.83;1790023;80;21232;-75
2021/01/29 08:50:14;;;;;;;17.95;11.90;;;;;;;-0.51;100.00;97217.96;1778702;80;21060;-75
2021/01/29 08:53:45;;;;;;;22.75;15.65;;;;;;;-0.82;100.00;97219.28;1786029;78;20942;-75
2021/01/29 08:56:58;;;;;;;22.45;15.63;;;;;;;-0.51;100.00;97224.02;1790679;80;21200;-74
2021/01/29 08:59:34;;;;;;;12.95;9.30;;;;;;;-0.04;100.00;97228.94;1701441;84;21153;-75
2021/01/29 09:02:29;;;;;;;19.17;12.13;;;;;;;0.07;100.00;97222.48;1701317;83;20988;-75
2021/01/29 09:05:04;;;;;;;18.20;11.05;;;;;;;0.27;100.00;97216.18;1670105;85;21647;-74
2021/01/29 09:07:35;;;;;;;19.87;11.93;;;;;;;0.07;100.00;97217.21;1656013;86;21147;-75
2021/01/29 09:10:35;;;;;;;18.95;11.38;;;;;;;0.18;100.00;97209.72;1631644;86;21223;-75
2021/01/29 09:13:08;;;;;;;18.25;11.40;;;;;;;0.27;97.07;97223.27;1670284;85;21255;-74
2021/01/29 09:16:12;;;;;;;17.57;10.50;;;;;;;0.10;97.13;97232.55;1655797;86;21000;-75
2021/01/29 09:22:10;;;;;;;17.55;10.53;;;;;;;1.00;94.35;97228.61;1875065;76;22401;-76
2021/01/29 09:25:20;;;;;;;16.60;10.40;;;;;;;0.48;92.79;97221.17;1781345;79;21038;-73
2021/01/29 09:28:11;;;;;;;16.25;9.93;;;;;;;0.72;92.88;97228.33;1745579;81;21347;-74
2021/01/29 09:31:18;;;;;;;22.73;11.48;;;;;;;1.12;93.78;97229.79;1826425;78;22349;-74
2021/01/29 09:34:11;;;;;;;15.50;11.28;;;;;;;1.64;88.61;97233.17;1786434;80;21010;-75
2021/01/29 09:36:52;;;;;;;13.85;8.05;;;;;;;1.59;85.23;97226.50;1755107;80;21381;-74
2021/01/29 09:39:41;;;;;;;17.80;9.85;;;;;;;1.15;83.64;97210.00;1717462;83;20994;-73
2021/01/29 09:42:51;;;;;;;14.18;10.00;;;;;;;1.80;81.95;97237.25;1721848;83;21050;-76
2021/01/29 09:45:24;;;;;;;18.70;9.80;;;;;;;1.67;81.26;97239.80;1693479;84;21245;-74
2021/01/29 09:48:10;;;;;;;11.93;8.05;;;;;;;1.98;75.61;97241.34;1754488;81;21091;-74
2021/01/29 09:50:50;;;;;;;14.23;7.83;;;;;;;1.86;73.72;97207.95;1755322;81;21919;-74
2021/01/29 09:53:23;;;;;;;14.65;9.08;;;;;;;1.70;74.61;97218.92;1754102;81;20963;-74
2021/01/29 09:56:16;;;;;;;15.58;9.58;;;;;;;1.43;75.23;97230.88;1818837;77;22289;-74
2021/01/29 09:59:26;;;;;;;13.40;9.35;;;;;;;1.38;74.29;97228.72;1755131;81;21062;-76
2021/01/29 10:02:03;;;;;;;13.80;9.30;;;;;;;1.50;73.93;97225.39;1765214;81;22263;-76
2021/01/29 10:05:05;;;;;;;9.85;7.05;;;;;;;1.89;70.79;97222.51;1754669;81;20904;-75
2021/01/29 10:07:42;;;;;;;12.15;6.97;;;;;;;1.68;77.62;97225.52;1764371;81;21022;-76
2021/01/29 10:10:53;;;;;;;11.90;7.65;;;;;;;1.19;69.10;97219.82;1709509;83;20903;-76
2021/01/29 10:14:22;;;;;;;9.53;7.22;;;;;;;1.71;68.08;97208.64;1844809;77;22901;-74
2021/01/29 10:17:04;;;;;;;10.58;8.10;;;;;;;1.77;67.17;97224.54;1814930;78;21048;-74
2021/01/29 10:19:49;;;;;;;13.13;7.90;;;;;;;1.72;67.38;97213.39;1821860;78;21594;-75
2021/01/29 10:22:49;;;;;;;;;;;;;;;2.14;65.41;97213.39;1824685;78;20942;-75
2021/01/29 10:25:37;;;;;;;14.58;8.45;;;;;;;1.55;66.26;97221.99;1822527;78;20191;-75
2021/01/29 10:28:26;;;;;;;10.75;7.17;;;;;;;1.46;64.70;97220.32;1818215;78;21142;-74
2021/01/29 10:31:07;;;;;;;12.35;6.30;;;;;;;1.16;65.59;97234.07;1818521;78;21641;-76
2021/01/29 10:33:45;;;;;;;13.15;9.33;;;;;;;0.69;65.54;97237.27;1793108;78;21790;-75
2021/01/29 10:36:33;;;;;;;11.28;7.30;;;;;;;0.95;65.52;97237.02;1820862;78;21004;-74
2021/01/29 10:39:11;;;;;;;11.55;7.67;;;;;;;0.66;66.32;97228.50;1822227;78;21032;-73
2021/01/29 10:41:53;;;;;;;9.25;6.97;;;;;;;0.93;66.85;97229.86;1822826;78;20905;-75
2021/01/29 10:44:27;;;;;;;13.43;8.03;;;;;;;0.23;69.64;97228.25;1795398;78;21063;-74
2021/01/29 10:47:20;;;;;;;19.35;9.83;;;;;;;0.41;70.41;97233.75;1822757;78;21266;-77
2021/01/29 10:50:01;;;;;;;14.55;8.03;;;;;;;0.49;70.77;97236.48;1822357;78;21566;-75
2021/01/29 10:53:21;;;;;;;13.17;9.00;;;;;;;0.97;68.93;97226.47;1822249;78;21099;-76
2021/01/29 10:56:11;;;;;;;17.07;9.75;;;;;;;0.76;68.73;97204.34;1782544;80;21181;-73
2021/01/29 11:01:50;;;;;;;19.12;11.03;;;;;;;1.04;70.10;97212.55;1840351;77;23810;-73
2021/01/29 11:04:37;;;;;;;13.30;7.83;;;;;;;1.64;69.57;97233.17;1816727;79;21066;-74
2021/01/29 11:07:33;;;;;;;15.35;8.35;;;;;;;0.84;70.98;97203.11;1816008;79;21190;-77
2021/01/29 11:10:30;;;;;;;17.82;11.38;;;;;;;1.73;68.02;97214.98;1816170;79;21616;-74
2021/01/29 11:13:47;;;;;;;17.23;10.43;;;;;;;2.17;70.10;97214.73;1815465;79;21026;-74
2021/01/29 11:16:41;;;;;;;;;;;;;;;;;;;;;
2021/01/29 11:19:31;;;;;;;14.47;8.90;;;;;;;1.47;71.30;97208.69;1851331;77;22727;-75
2021/01/29 11:33:04;;;;;;;21.30;12.68;;;;;;;0.20;78.91;97205.80;1767368;80;22748;-74
2021/01/29 11:36:02;;;;;;;20.20;11.38;;;;;;;0.16;79.29;97206.00;1631838;86;21224;-74
2021/01/29 11:39:05;;;;;;;17.25;9.25;;;;;;;-0.21;82.44;97205.75;1631110;87;21224;-73
2021/01/29 11:41:56;;;;;;;25.37;14.55;;;;;;;0.06;82.75;97207.19;1631830;87;21225;-74
2021/01/29 12:23:21;;;;;;;;;;;;;;;1.74;70.72;97238.25;1653926;85;21247;-75
2021/01/29 12:26:22;;;;;;;20.50;10.20;;;;;;;1.42;69.25;97218.72;1666549;85;20536;-76
2021/01/29 12:29:09;;;;;;;;;;;;;;;;;;;;;
2021/01/29 12:32:39;;;;;;;11.53;6.97;;;;;;;1.88;64.28;97225.66;1642426;85;21290;-74
2021/01/29 12:35:30;;;;;;;14.65;9.08;;;;;;;1.55;63.84;97234.69;1660742;84;21730;-75
2021/01/29 12:39:01;;;;;;;10.80;7.33;;;;;;;1.61;66.64;97227.58;1832508;77;22722;-73
2021/01/29 12:41:58;;;;;;;13.32;8.45;;;;;;;1.37;65.38;97231.08;1783441;80;20991;-75
2021/01/29 12:44:43;;;;;;;12.18;7.95;;;;;;;1.85;64.33;97242.58;1783140;80;22404;-73
2021/01/29 12:47:32;;;;;;;8.55;6.55;;;;;;;2.02;64.59;97235.28;1780870;80;21030;-74
2021/01/29 12:50:45;;;;;;;10.40;7.33;;;;;;;2.30;64.88;97241.26;1779615;80;21617;-73
2021/01/29 12:53:39;;;;;;;7.70;5.50;;;;;;;1.94;64.46;97238.41;1872416;75;22470;-76
2021/01/29 12:56:20;;;;;;;8.15;5.90;;;;;;;1.74;62.86;97231.13;1813111;79;21420;-73
2021/01/29 12:59:02;;;;;;;8.95;6.87;;;;;;;1.66;63.28;97251.41;1817159;77;21245;-75
2021/01/29 13:05:06;;;;;;;5.78;5.12;;;;;;;0.96;66.04;97239.42;1844032;77;22678;-74
2021/01/29 13:07:30;;;;;;;7.92;5.83;;;;;;;0.58;68.83;97250.33;1791696;78;21041;-73
2021/01/29 13:10:44;;;;;;;7.37;5.83;;;;;;;0.01;72.10;97252.48;1820026;78;21369;-75
2021/01/29 13:13:52;;;;;;;14.55;6.10;;;;;;;-0.04;71.81;97253.20;1816981;78;21218;-75
2021/01/29 13:16:40;;;;;;;6.75;4.90;;;;;;;-0.21;74.08;97259.80;1815402;78;22207;-73
2021/01/29 13:19:53;;;;;;;8.53;5.97;;;;;;;-0.44;74.54;97254.97;1819852;78;21024;-75
2021/01/29 13:23:12;;;;;;;8.15;6.15;;;;;;;-0.23;75.18;97259.23;1816440;78;21601;-75
2021/01/29 13:26:04;;;;;;;12.63;8.58;;;;;;;-0.55;74.58;97261.10;1817075;78;21437;-74
2021/01/29 13:28:46;;;;;;;10.43;6.70;;;;;;;-0.18;75.36;97265.11;1821429;78;20984;-74
2021/01/29 13:31:38;;;;;;;8.08;6.87;;;;;;;-0.36;77.31;97263.00;1778100;78;21209;-75
2021/01/29 13:38:29;;;;;;;10.35;7.05;;;;;;;0.02;78.68;97260.13;1847024;77;28873;-74
2021/01/29 13:41:19;;;;;;;12.20;8.93;;;;;;;-0.08;79.13;97260.78;1806073;78;20963;-74
2021/01/29 13:43:55;;;;;;;17.43;12.13;;;;;;;-0.07;79.69;97266.35;1835012;77;27832;-73
2021/01/29 13:46:35;;;;;;;10.53;7.72;;;;;;;-0.28;79.80;97263.12;1813972;78;21510;-73
2021/01/29 13:49:23;;;;;;;9.48;6.53;;;;;;;-0.54;79.76;97262.72;1746767;82;22526;-73
2021/01/29 13:51:53;;;;;;;12.07;6.67;;;;;;;-0.70;78.17;97273.50;1809861;78;21009;-74
2021/01/29 13:54:37;;;;;;;7.87;6.78;;;;;;;-1.00;78.54;97251.90;1755861;80;20985;-76
2021/01/29 13:57:24;;;;;;;8.63;6.55;;;;;;;-0.23;77.09;97260.56;1785272;80;21464;-74
2021/01/29 14:00:12;;;;;;;9.45;7.12;;;;;;;-0.46;78.23;97258.36;1785059;80;21048;-75
2021/01/29 14:02:51;;;;;;;11.38;7.00;;;;;;;-0.55;79.65;97258.99;1786179;80;21200;-75
2021/01/29 14:05:26;;;;;;;8.03;6.60;;;;;;;-0.70;80.77;97256.90;1786273;80;21021;-73
2021/01/29 14:07:58;;;;;;;15.58;7.58;;;;;;;-0.82;81.24;97266.17;1784276;80;20994;-76
2021/01/29 14:10:31;;;;;;;13.68;8.85;;;;;;;-0.59;79.55;97255.22;1784413;80;21572;-74
2021/01/29 14:13:57;;;;;;;10.48;6.97;;;;;;;-1.06;81.61;97273.36;1784449;80;21053;-73
2021/01/29 14:17:15;;;;;;;12.20;7.45;;;;;;;-0.61;80.76;97283.64;1809577;78;21361;-73
2021/01/29 14:20:06;;;;;;;11.45;7.72;;;;;;;-0.99;83.42;97275.87;1818210;78;21177;-74
2021/01/29 14:23:07;;;;;;;9.18;7.25;;;;;;;-0.97;86.47;97275.91;1818568;78;21348;-73
2021/01/29 14:26:15;;;;;;;14.53;9.05;;;;;;;-1.18;87.47;97281.81;1795591;78;21199;-74
2021/01/29 14:29:07;;;;;;;12.93;10.03;;;;;;;-0.98;88.94;97282.72;1786822;80;20997;-74
2021/01/29 14:31:53;;;;;;;;;;;;;;;-1.09;89.10;97286.48;1789306;80;21651;-74
2021/01/29 14:34:42;;;;;;;;;;;;;;;-1.18;92.26;97282.61;1852338;77;20275;-72
2021/01/29 14:37:24;;;;;;;;;;;;;;;-1.47;94.36;97279.16;1811073;78;20271;-74
2021/01/29 14:40:16;;;;;;;;;;;;;;;-1.67;94.94;97275.56;1820445;78;21299;-74
2021/01/29 14:43:21;;;;;;;;;;;;;;;-1.87;94.82;97258.83;1819108;78;20267;-73
2021/01/29 14:46:15;;;;;;;;;;;;;;;-1.56;95.58;97280.55;1821345;78;20251;-75
2021/01/29 14:49:23;;;;;;;;;;;;;;;-1.87;96.19;97273.81;1821852;78;20264;-74
2021/01/29 14:52:13;;;;;;;;;;;;;;;-1.76;97.90;97292.75;1820290;78;20142;-76
2021/01/29 14:55:16;;;;;;;;;;;;;;;-1.93;98.32;97297.89;1815057;77;22115;-73
2021/01/29 14:58:25;;;;;;;;;;;;;;;-2.08;100.00;97294.89;1814566;79;20551;-73
2021/01/29 15:01:33;;;;;;;;;;;;;;;-1.98;100.00;97310.41;1812460;79;20157;-75
2021/01/29 15:04:28;;;;;;;;;;;;;;;-2.22;99.75;97305.63;1812581;79;20200;-73
2021/01/29 15:07:00;;;;;;;;;;;;;;;-2.43;99.83;97312.20;1777694;79;20242;-73
2021/01/29 15:09:30;;;;;;;;;;;;;;;-2.37;100.00;97307.90;1779295;80;22114;-73
2021/01/29 15:12:01;;;;;;;;;;;;;;;-2.36;99.81;97317.37;1781299;80;20254;-75
2021/01/29 15:14:53;;;;;;;;;;;;;;;-2.31;99.54;97318.01;1780349;80;20243;-75